Terminal Aerodrome Forecast
Issued by NWS Cleveland, OH

Home | Current Version | Previous Version | Graphics & Text | Print | Product List | Glossary On
Versions: 1 2 3 4 5 6 7 8 9 10 11 12 13 14 15 16 17 18 19 20 21 22 23 24 25 26 27 28 29 30 31 32
000
FTUS41 KCLE 220100 AAA
TAFCLE
TAF AMD
KCLE 220142Z 2202/2306 35012KT 6SM -RA BR SCT008 OVC018
     FM220300 36012KT P6SM OVC020
     FM222000 36010KT P6SM BKN035
     FM230100 36008KT P6SM SCT035=

USA.gov is the U.S. government's official web portal to all federal, state and local government web resources and services.